Time;durP1;ratioP1;P1;durP2;ratioP2;P2;SDS_P1;SDS_P2;PMS_P1;PMS_P2;Temp;Humidity;BMP_temperature;BMP_pressure;BME280_temperature;BME280_humidity;BME280_pressure;Samples;Min_cycle;Max_cycle;Signal;HPM_P1;HPM_P2
2021/07/17 00:00:28;;;;;;;1.45;1.13;;;15.20;99.90;;;;;;5019600;28;20653;-73
2021/07/17 00:02:54;;;;;;;0.40;0.40;;;15.20;99.90;;;;;;5022128;28;20229;-74
2021/07/17 00:05:20;;;;;;;0.75;0.75;;;15.10;99.90;;;;;;5006819;28;20270;-73
2021/07/17 00:07:47;;;;;;;0.70;0.70;;;15.10;99.90;;;;;;4996324;28;20217;-73
2021/07/17 00:10:40;;;;;;;0.50;0.50;;;15.10;99.90;;;;;;4993417;28;20203;-73
2021/07/17 00:13:07;;;;;;;2.80;1.75;;;15.10;99.90;;;;;;4993307;28;20836;-73
2021/07/17 00:15:34;;;;;;;4.15;1.70;;;15.10;99.90;;;;;;5004732;28;20382;-73
2021/07/17 00:18:00;;;;;;;0.60;0.57;;;15.10;99.90;;;;;;4991744;28;20196;-73
2021/07/17 00:20:25;;;;;;;0.40;0.40;;;15.10;99.90;;;;;;5007540;28;20572;-73
2021/07/17 00:22:51;;;;;;;0.73;0.73;;;15.00;99.90;;;;;;5008631;28;20221;-73
2021/07/17 00:25:20;;;;;;;1.15;1.08;;;15.00;99.90;;;;;;5005761;28;20701;-73
2021/07/17 00:27:46;;;;;;;0.65;0.60;;;15.00;99.90;;;;;;5006091;28;20739;-73
2021/07/17 00:30:13;;;;;;;0.63;0.52;;;15.00;99.90;;;;;;5011898;28;20278;-73
2021/07/17 00:32:39;;;;;;;0.70;0.70;;;14.90;99.90;;;;;;5006569;28;20198;-74
2021/07/17 00:35:06;;;;;;;0.40;0.40;;;14.90;99.90;;;;;;5007401;28;20253;-74
2021/07/17 00:37:32;;;;;;;0.68;0.68;;;14.90;99.90;;;;;;4985885;28;20207;-74
2021/07/17 00:39:57;;;;;;;0.52;0.52;;;15.00;99.90;;;;;;5006130;28;20249;-74
2021/07/17 00:42:23;;;;;;;1.23;1.13;;;14.90;99.90;;;;;;4984878;28;20211;-74
2021/07/17 00:44:49;;;;;;;0.95;0.60;;;14.90;99.90;;;;;;5004006;28;20249;-74
2021/07/17 00:47:15;;;;;;;1.33;1.05;;;14.90;99.90;;;;;;5006518;28;20199;-73
2021/07/17 00:49:41;;;;;;;0.50;0.50;;;14.80;99.90;;;;;;5003415;28;20278;-73
2021/07/17 00:52:07;;;;;;;0.75;0.75;;;14.80;99.90;;;;;;5001552;28;20633;-73
2021/07/17 00:54:33;;;;;;;2.70;0.93;;;14.80;99.90;;;;;;4986547;28;20226;-74
2021/07/17 00:57:02;;;;;;;1.05;1.05;;;14.80;99.90;;;;;;4990926;28;20197;-73
2021/07/17 00:59:31;;;;;;;0.60;0.60;;;14.70;99.90;;;;;;5001418;28;20231;-73
2021/07/17 01:01:58;;;;;;;0.77;0.77;;;14.70;99.90;;;;;;5002765;28;20225;-73
2021/07/17 01:04:24;;;;;;;0.68;0.68;;;14.70;99.90;;;;;;5004438;28;20206;-72
2021/07/17 01:06:51;;;;;;;0.63;0.63;;;14.60;99.90;;;;;;5018958;28;20265;-73
2021/07/17 01:09:17;;;;;;;0.65;0.65;;;14.60;99.90;;;;;;5022120;28;20637;-74
2021/07/17 01:11:43;;;;;;;0.93;0.93;;;14.50;99.90;;;;;;5021168;28;20289;-73
2021/07/17 01:14:10;;;;;;;1.00;1.00;;;14.50;99.90;;;;;;5021243;28;20194;-73
2021/07/17 01:16:37;;;;;;;0.50;0.50;;;14.50;99.90;;;;;;5019386;28;20206;-72
2021/07/17 01:19:03;;;;;;;0.75;0.75;;;14.50;99.90;;;;;;5022929;28;20226;-73
2021/07/17 01:21:29;;;;;;;0.88;0.65;;;14.50;99.90;;;;;;5015139;28;20265;-73
2021/07/17 01:23:55;;;;;;;1.25;1.15;;;14.50;99.90;;;;;;5015336;28;20206;-73
2021/07/17 01:26:21;;;;;;;0.85;0.85;;;14.50;99.90;;;;;;5022190;28;20194;-73
2021/07/17 01:28:47;;;;;;;1.35;1.25;;;14.50;99.90;;;;;;5019340;28;20203;-72
2021/07/17 01:31:13;;;;;;;0.80;0.80;;;14.50;99.90;;;;;;5022237;28;20203;-73
2021/07/17 01:33:40;;;;;;;0.75;0.68;;;14.40;99.90;;;;;;5019242;28;20221;-73
2021/07/17 01:36:06;;;;;;;0.77;0.77;;;14.40;99.90;;;;;;5022809;28;20608;-72
2021/07/17 01:38:32;;;;;;;0.85;0.85;;;14.40;99.90;;;;;;5020711;28;20681;-73
2021/07/17 01:40:59;;;;;;;1.13;0.82;;;14.40;99.90;;;;;;5023513;28;20190;-73
2021/07/17 01:43:24;;;;;;;0.68;0.68;;;14.40;99.90;;;;;;5022652;28;20198;-73
2021/07/17 01:45:50;;;;;;;0.82;0.45;;;14.40;99.90;;;;;;5024805;28;20217;-73
2021/07/17 01:48:16;;;;;;;0.85;0.85;;;14.40;99.90;;;;;;5023194;28;20207;-73
2021/07/17 01:50:43;;;;;;;1.00;0.95;;;14.40;99.90;;;;;;5016201;28;20221;-74
2021/07/17 01:53:11;;;;;;;1.27;1.17;;;14.40;99.90;;;;;;5017956;28;20201;-73
2021/07/17 01:55:37;;;;;;;0.50;0.50;;;14.30;99.90;;;;;;5019838;28;20222;-72
2021/07/17 01:58:03;;;;;;;0.90;0.90;;;14.30;99.90;;;;;;5014746;28;20253;-73
2021/07/17 02:00:30;;;;;;;0.80;0.80;;;14.30;99.90;;;;;;5019141;28;20210;-72
2021/07/17 02:02:56;;;;;;;1.48;0.77;;;14.30;99.90;;;;;;5022299;28;21029;-73
2021/07/17 02:05:24;;;;;;;4.32;0.93;;;14.30;99.90;;;;;;5019896;28;20226;-73
2021/07/17 02:07:51;;;;;;;0.65;0.57;;;14.30;99.90;;;;;;5022136;28;20226;-73
2021/07/17 02:10:20;;;;;;;0.77;0.77;;;14.30;99.90;;;;;;5020042;28;20202;-73
2021/07/17 02:13:04;;;;;;;2.15;1.30;;;14.30;99.90;;;;;;5014895;28;20198;-72
2021/07/17 02:15:34;;;;;;;2.40;1.52;;;14.20;99.90;;;;;;5025331;28;20206;-73
2021/07/17 02:18:01;;;;;;;4.70;1.30;;;14.20;99.90;;;;;;5022970;28;20240;-73
2021/07/17 02:20:28;;;;;;;0.55;0.55;;;14.20;99.90;;;;;;5016382;28;20207;-73
2021/07/17 02:22:54;;;;;;;0.73;0.73;;;14.20;99.90;;;;;;5027845;28;20186;-73
2021/07/17 02:25:20;;;;;;;0.68;0.52;;;14.20;99.90;;;;;;5019792;28;20233;-73
2021/07/17 02:27:45;;;;;;;2.50;1.65;;;14.20;99.90;;;;;;5018879;28;20191;-72
2021/07/17 02:30:12;;;;;;;1.85;1.40;;;14.10;99.90;;;;;;5026067;28;20194;-72
2021/07/17 02:32:37;;;;;;;0.82;0.77;;;14.10;99.90;;;;;;5024098;28;20199;-72
2021/07/17 02:35:05;;;;;;;0.88;0.88;;;14.20;99.90;;;;;;5018746;28;20632;-73
2021/07/17 02:37:31;;;;;;;0.60;0.60;;;14.20;99.90;;;;;;5017855;28;20221;-72
2021/07/17 02:39:56;;;;;;;1.10;1.00;;;14.20;99.90;;;;;;5016226;28;20199;-72
2021/07/17 02:42:22;;;;;;;1.10;1.02;;;14.10;99.90;;;;;;5020639;28;20686;-72
2021/07/17 02:44:49;;;;;;;0.57;0.57;;;14.10;99.90;;;;;;5013862;28;20279;-73
2021/07/17 02:47:15;;;;;;;0.47;0.47;;;14.10;99.90;;;;;;5022912;28;20214;-73
2021/07/17 02:49:41;;;;;;;0.63;0.63;;;14.10;99.90;;;;;;5012327;28;20210;-73
2021/07/17 02:52:07;;;;;;;1.00;1.00;;;14.10;99.90;;;;;;5023762;28;20546;-73
2021/07/17 02:54:32;;;;;;;5.82;1.08;;;14.10;99.90;;;;;;5019692;28;20214;-73
2021/07/17 02:56:58;;;;;;;0.88;0.88;;;14.10;99.90;;;;;;5023846;28;20222;-72
2021/07/17 02:59:24;;;;;;;1.13;1.02;;;14.10;99.90;;;;;;5019345;28;20302;-73
2021/07/17 03:01:49;;;;;;;1.50;1.40;;;14.10;99.90;;;;;;5019651;28;20213;-72
2021/07/17 03:04:15;;;;;;;1.45;1.35;;;14.10;99.90;;;;;;5028634;28;20210;-73
2021/07/17 03:06:41;;;;;;;0.85;0.85;;;14.10;99.90;;;;;;4998557;28;20236;-73
2021/07/17 03:09:06;;;;;;;0.60;0.60;;;14.20;99.90;;;;;;4982843;28;20225;-72
2021/07/17 03:11:32;;;;;;;0.50;0.50;;;14.20;99.90;;;;;;5003427;28;20265;-74
2021/07/17 03:13:59;;;;;;;0.55;0.55;;;14.30;99.90;;;;;;4984463;28;20195;-73
2021/07/17 03:16:25;;;;;;;0.70;0.70;;;14.30;99.90;;;;;;5002993;28;20764;-72
2021/07/17 03:18:52;;;;;;;1.92;1.75;;;14.40;99.90;;;;;;5006512;28;20199;-72
2021/07/17 03:21:17;;;;;;;1.02;0.95;;;14.40;99.90;;;;;;4989888;28;20206;-72
2021/07/17 03:23:43;;;;;;;3.42;1.00;;;14.50;99.90;;;;;;5009067;28;20202;-73
2021/07/17 03:26:08;;;;;;;1.48;1.00;;;14.60;99.90;;;;;;5004076;28;20279;-72
2021/07/17 03:28:34;;;;;;;0.52;0.52;;;14.60;99.90;;;;;;4991409;28;20206;-72
2021/07/17 03:31:00;;;;;;;1.98;1.05;;;14.60;99.90;;;;;;4999343;28;20192;-72
2021/07/17 03:33:26;;;;;;;1.90;0.77;;;14.70;99.90;;;;;;4997324;28;20289;-72
2021/07/17 03:35:51;;;;;;;0.55;0.55;;;14.80;99.90;;;;;;5000244;28;20219;-72
2021/07/17 03:38:17;;;;;;;0.93;0.85;;;14.80;99.90;;;;;;5001874;28;20207;-73
2021/07/17 03:40:42;;;;;;;0.52;0.52;;;15.00;99.90;;;;;;4997384;28;20211;-72
2021/07/17 03:43:10;;;;;;;1.08;0.80;;;15.00;99.90;;;;;;5007671;28;20198;-72
2021/07/17 03:45:36;;;;;;;0.70;0.70;;;15.10;99.90;;;;;;4983336;28;20225;-72
2021/07/17 03:48:02;;;;;;;0.73;0.73;;;15.20;99.90;;;;;;5006448;28;20187;-72
2021/07/17 03:50:27;;;;;;;1.02;1.02;;;15.30;99.90;;;;;;5003216;28;20206;-73
2021/07/17 03:52:53;;;;;;;0.95;0.95;;;15.40;99.90;;;;;;5005510;28;20222;-73
2021/07/17 03:55:19;;;;;;;0.80;0.80;;;15.40;99.90;;;;;;4983856;28;20206;-72
2021/07/17 03:57:45;;;;;;;1.73;1.15;;;15.60;99.90;;;;;;5007684;28;20334;-72
2021/07/17 04:00:11;;;;;;;0.60;0.60;;;15.70;99.90;;;;;;5006125;28;20247;-72
2021/07/17 04:02:44;;;;;;;0.85;0.80;;;15.90;99.90;;;;;;5003087;28;20254;-72
2021/07/17 04:05:11;;;;;;;1.40;1.02;;;16.00;99.90;;;;;;5002107;28;20565;-72
2021/07/17 04:07:37;;;;;;;1.38;1.27;;;16.20;99.90;;;;;;4993663;28;20665;-73
2021/07/17 04:10:05;;;;;;;2.15;1.13;;;16.30;99.90;;;;;;4993557;28;20199;-73
2021/07/17 04:12:31;;;;;;;1.58;1.02;;;16.40;99.90;;;;;;5003140;28;20195;-73
2021/07/17 04:14:57;;;;;;;0.93;0.90;;;16.50;99.90;;;;;;5007426;28;20213;-73
2021/07/17 04:17:23;;;;;;;0.75;0.75;;;16.60;99.90;;;;;;4982320;28;20335;-72
2021/07/17 04:19:49;;;;;;;0.88;0.88;;;16.70;99.90;;;;;;5003754;28;20233;-73
2021/07/17 04:22:14;;;;;;;1.38;0.85;;;16.80;99.90;;;;;;5004826;28;20306;-74
2021/07/17 04:24:40;;;;;;;1.13;0.90;;;16.90;99.90;;;;;;4980076;28;20225;-73
2021/07/17 04:27:06;;;;;;;3.42;1.30;;;17.00;99.90;;;;;;5003494;28;20191;-73
2021/07/17 04:29:31;;;;;;;0.70;0.70;;;17.20;99.90;;;;;;4984178;28;20210;-73
2021/07/17 04:31:57;;;;;;;1.55;1.15;;;17.30;99.90;;;;;;4999379;28;20199;-72
2021/07/17 04:34:23;;;;;;;0.90;0.90;;;17.30;99.90;;;;;;5001560;28;20716;-73
2021/07/17 04:36:49;;;;;;;0.80;0.80;;;17.40;99.90;;;;;;5002855;28;20194;-73
2021/07/17 04:39:15;;;;;;;2.53;1.23;;;17.50;99.90;;;;;;4997092;28;20211;-73
2021/07/17 04:41:41;;;;;;;0.57;0.55;;;17.60;99.90;;;;;;5002500;28;20265;-72
2021/07/17 04:44:07;;;;;;;0.50;0.50;;;17.70;99.90;;;;;;5002217;28;20729;-73
2021/07/17 04:46:35;;;;;;;1.05;0.95;;;17.80;99.90;;;;;;5004010;28;20210;-73
2021/07/17 04:49:00;;;;;;;0.80;0.65;;;18.00;99.90;;;;;;5006322;28;20194;-72
2021/07/17 04:51:26;;;;;;;0.50;0.50;;;18.20;99.90;;;;;;5006147;28;20199;-73
2021/07/17 04:53:52;;;;;;;0.57;0.57;;;18.30;99.90;;;;;;5004043;28;20920;-73
2021/07/17 04:56:18;;;;;;;0.60;0.60;;;18.40;99.90;;;;;;5005477;28;20226;-72
2021/07/17 04:58:44;;;;;;;0.75;0.75;;;18.50;99.90;;;;;;5004380;28;20191;-72
2021/07/17 05:01:10;;;;;;;3.17;1.60;;;18.70;99.90;;;;;;4998941;28;20205;-72
2021/07/17 05:03:36;;;;;;;2.95;1.27;;;18.70;99.90;;;;;;4980720;28;20203;-73
2021/07/17 05:06:02;;;;;;;0.70;0.70;;;18.90;99.90;;;;;;5018845;28;20641;-73
2021/07/17 05:08:28;;;;;;;0.68;0.68;;;19.00;99.90;;;;;;5017246;28;20548;-72
2021/07/17 05:10:54;;;;;;;0.50;0.50;;;19.10;99.90;;;;;;5017710;28;20261;-71
2021/07/17 05:13:19;;;;;;;1.85;1.40;;;19.20;99.90;;;;;;5020395;28;20226;-70
2021/07/17 05:15:45;;;;;;;1.50;1.02;;;19.40;99.90;;;;;;5017564;28;20206;-71
2021/07/17 05:18:12;;;;;;;1.30;0.88;;;19.50;99.90;;;;;;5021293;28;20197;-71
2021/07/17 05:20:39;;;;;;;0.40;0.40;;;19.60;99.90;;;;;;5019832;28;20205;-70
2021/07/17 05:23:04;;;;;;;0.38;0.38;;;19.80;99.90;;;;;;5025782;28;20251;-71
2021/07/17 05:25:30;;;;;;;0.30;0.30;;;19.90;99.90;;;;;;5014776;28;20206;-71
2021/07/17 05:27:56;;;;;;;0.63;0.38;;;20.00;99.90;;;;;;5020688;28;20199;-70
2021/07/17 05:30:22;;;;;;;0.75;0.68;;;20.10;99.90;;;;;;5015464;28;20289;-71
2021/07/17 05:32:48;;;;;;;1.27;1.10;;;20.20;99.90;;;;;;5015611;28;20203;-71
2021/07/17 05:35:14;;;;;;;0.70;0.70;;;20.10;99.90;;;;;;5022304;28;20204;-71
2021/07/17 05:37:40;;;;;;;0.63;0.50;;;20.20;99.90;;;;;;5034173;28;20257;-71
2021/07/17 05:40:06;;;;;;;1.65;0.85;;;20.30;99.90;;;;;;5027188;28;20257;-70
2021/07/17 05:42:32;;;;;;;1.05;0.60;;;20.50;99.90;;;;;;5015497;28;20206;-72
2021/07/17 05:44:58;;;;;;;0.60;0.50;;;20.60;99.90;;;;;;5019143;28;20805;-71
2021/07/17 05:47:24;;;;;;;0.40;0.40;;;20.70;99.90;;;;;;5024080;28;20364;-70
2021/07/17 05:49:50;;;;;;;0.30;0.30;;;20.90;99.90;;;;;;5017155;28;20245;-70
2021/07/17 05:52:15;;;;;;;0.38;0.25;;;20.90;99.90;;;;;;5019307;28;20603;-70
2021/07/17 05:54:41;;;;;;;0.30;0.30;;;21.00;99.90;;;;;;5014351;28;20264;-71
2021/07/17 05:57:08;;;;;;;0.65;0.45;;;21.20;99.90;;;;;;5017884;28;20191;-72
2021/07/17 05:59:35;;;;;;;0.40;0.40;;;21.30;99.90;;;;;;5013326;28;20505;-70
2021/07/17 06:02:01;;;;;;;1.55;1.08;;;21.30;99.90;;;;;;5018604;28;20290;-71
2021/07/17 06:04:26;;;;;;;0.47;0.47;;;21.40;99.90;;;;;;5021902;28;21385;-70
2021/07/17 06:06:52;;;;;;;0.40;0.40;;;21.40;99.90;;;;;;5016502;28;20306;-71
2021/07/17 06:09:17;;;;;;;0.40;0.38;;;21.50;99.90;;;;;;5022480;28;20234;-71
2021/07/17 06:11:43;;;;;;;0.38;0.38;;;21.60;99.90;;;;;;5016574;28;20194;-70
2021/07/17 06:14:09;;;;;;;1.35;0.68;;;21.70;99.90;;;;;;5022894;28;20212;-71
2021/07/17 06:16:35;;;;;;;0.38;0.38;;;21.80;99.90;;;;;;5022688;28;20224;-71
2021/07/17 06:19:00;;;;;;;0.45;0.45;;;21.80;99.90;;;;;;5017034;28;20292;-71
2021/07/17 06:21:26;;;;;;;0.40;0.40;;;21.90;99.90;;;;;;5026087;28;22279;-71
2021/07/17 06:23:52;;;;;;;0.50;0.50;;;22.00;99.90;;;;;;5020249;28;20948;-71
2021/07/17 06:26:18;;;;;;;0.30;0.30;;;22.10;99.90;;;;;;5022917;28;20233;-71
2021/07/17 06:28:43;;;;;;;0.50;0.50;;;22.20;99.90;;;;;;5021465;28;20731;-71
2021/07/17 06:31:09;;;;;;;0.20;0.20;;;22.50;99.90;;;;;;5024608;28;20198;-70
2021/07/17 06:33:35;;;;;;;0.20;0.20;;;22.80;99.90;;;;;;5020444;28;20316;-70
2021/07/17 06:36:01;;;;;;;0.30;0.30;;;23.00;99.90;;;;;;5015176;28;20285;-71
2021/07/17 06:38:27;;;;;;;0.32;0.20;;;23.20;99.90;;;;;;5037013;28;20202;-71
2021/07/17 06:40:53;;;;;;;5.20;0.57;;;23.30;99.90;;;;;;5016807;28;20596;-71
2021/07/17 06:43:18;;;;;;;0.85;0.50;;;23.20;99.90;;;;;;5014123;28;20203;-71
2021/07/17 06:45:44;;;;;;;0.30;0.30;;;23.30;99.90;;;;;;5019062;28;20212;-71
2021/07/17 06:48:11;;;;;;;0.40;0.40;;;23.40;99.90;;;;;;5012628;28;20290;-71
2021/07/17 06:50:37;;;;;;;0.35;0.30;;;23.60;99.90;;;;;;5015213;28;20198;-72
2021/07/17 06:53:03;;;;;;;0.35;0.35;;;23.80;99.90;;;;;;5014712;28;20191;-71
2021/07/17 06:55:30;;;;;;;0.20;0.20;;;24.00;99.90;;;;;;5012111;28;20194;-72
2021/07/17 06:57:56;;;;;;;0.40;0.40;;;24.10;99.90;;;;;;5010617;28;20194;-72
2021/07/17 07:00:22;;;;;;;1.13;0.43;;;24.10;99.90;;;;;;5015562;28;20253;-72
2021/07/17 07:02:47;;;;;;;1.30;0.40;;;24.10;99.90;;;;;;5013855;28;20207;-71
2021/07/17 07:05:13;;;;;;;0.20;0.20;;;24.30;99.90;;;;;;5011819;28;20238;-71
2021/07/17 07:07:39;;;;;;;0.45;0.43;;;24.00;99.90;;;;;;5018369;28;20221;-71
2021/07/17 07:10:07;;;;;;;1.55;0.40;;;24.00;99.90;;;;;;5010514;28;20280;-71
2021/07/17 07:12:36;;;;;;;0.30;0.30;;;24.10;99.90;;;;;;5013688;28;20750;-71
2021/07/17 07:15:05;;;;;;;2.67;1.02;;;24.30;99.90;;;;;;5012546;28;20206;-72
2021/07/17 07:17:30;;;;;;;0.35;0.35;;;24.50;99.90;;;;;;5011590;28;20688;-72
2021/07/17 07:19:56;;;;;;;0.43;0.43;;;24.80;99.90;;;;;;5017512;28;20209;-71
2021/07/17 07:22:23;;;;;;;0.80;0.45;;;24.90;99.90;;;;;;5028091;28;20799;-74
2021/07/17 07:24:49;;;;;;;0.45;0.40;;;24.90;99.90;;;;;;5035763;28;20377;-72
2021/07/17 07:27:14;;;;;;;0.10;0.10;;;24.80;99.90;;;;;;5010337;28;20887;-72
2021/07/17 07:29:40;;;;;;;1.10;0.63;;;24.90;99.90;;;;;;5007757;28;20199;-71
2021/07/17 07:32:06;;;;;;;0.20;0.20;;;24.80;99.90;;;;;;5008929;28;20253;-72
2021/07/17 07:34:31;;;;;;;0.38;0.30;;;24.70;99.90;;;;;;5028799;28;20203;-72
2021/07/17 07:36:57;;;;;;;0.20;0.20;;;24.70;99.90;;;;;;5010193;28;20392;-72
2021/07/17 07:39:23;;;;;;;0.30;0.30;;;24.80;99.90;;;;;;5013034;28;20546;-71
2021/07/17 07:41:48;;;;;;;0.30;0.25;;;25.00;99.90;;;;;;5012935;28;20198;-72
2021/07/17 07:44:14;;;;;;;0.45;0.30;;;25.10;99.90;;;;;;5016047;28;20203;-72
2021/07/17 07:46:40;;;;;;;0.20;0.20;;;25.10;99.90;;;;;;5005067;28;20195;-72
2021/07/17 07:49:07;;;;;;;0.40;0.40;;;25.00;99.90;;;;;;5009753;28;20218;-72
2021/07/17 07:51:33;;;;;;;0.43;0.43;;;25.20;99.90;;;;;;5018751;28;20463;-73
2021/07/17 07:54:00;;;;;;;0.13;0.13;;;25.40;99.90;;;;;;5009689;28;20734;-71
2021/07/17 07:56:26;;;;;;;0.88;0.43;;;25.40;99.90;;;;;;5011810;28;20681;-72
2021/07/17 07:58:51;;;;;;;0.43;0.43;;;25.20;99.90;;;;;;5007914;28;20205;-71
2021/07/17 08:01:17;;;;;;;0.10;0.10;;;25.10;99.90;;;;;;5007956;28;20198;-72
2021/07/17 08:03:43;;;;;;;0.20;0.20;;;25.20;99.90;;;;;;5014925;28;20248;-72
2021/07/17 08:06:08;;;;;;;0.40;0.40;;;25.50;99.90;;;;;;5010987;28;20708;-71
2021/07/17 08:08:34;;;;;;;0.65;0.22;;;25.80;99.90;;;;;;5007685;28;20629;-72
2021/07/17 08:11:00;;;;;;;0.30;0.30;;;25.80;99.90;;;;;;5010147;28;20426;-72
2021/07/17 08:13:26;;;;;;;0.77;0.50;;;25.50;99.90;;;;;;5011087;28;20211;-71
2021/07/17 08:15:53;;;;;;;0.50;0.50;;;25.80;99.90;;;;;;5007560;28;20265;-72
2021/07/17 08:18:19;;;;;;;0.70;0.68;;;26.10;99.90;;;;;;5012828;28;20202;-72
2021/07/17 08:20:45;;;;;;;0.30;0.30;;;26.50;99.90;;;;;;5010514;28;20187;-73
2021/07/17 08:23:11;;;;;;;0.15;0.13;;;26.40;99.90;;;;;;5013394;28;20321;-72
2021/07/17 08:25:37;;;;;;;0.25;0.25;;;26.50;99.90;;;;;;5015493;28;20723;-72
2021/07/17 08:28:03;;;;;;;0.50;0.50;;;26.60;99.90;;;;;;5011494;28;20237;-71
2021/07/17 08:30:29;;;;;;;4.78;0.88;;;26.40;99.90;;;;;;5006192;28;20249;-72
2021/07/17 08:32:55;;;;;;;0.20;0.20;;;26.40;99.90;;;;;;5009266;28;20195;-72
2021/07/17 08:35:22;;;;;;;2.10;0.90;;;26.30;99.90;;;;;;5007907;28;20603;-72
2021/07/17 08:37:48;;;;;;;0.10;0.10;;;26.60;99.90;;;;;;5010271;28;20205;-72
2021/07/17 08:40:14;;;;;;;0.40;0.20;;;27.00;99.60;;;;;;5013979;28;20672;-72
2021/07/17 08:42:45;;;;;;;0.52;0.40;;;27.10;99.90;;;;;;5007522;28;20210;-71
2021/07/17 08:45:11;;;;;;;0.20;0.20;;;27.00;99.90;;;;;;5008414;28;20205;-72
2021/07/17 08:47:40;;;;;;;0.22;0.22;;;27.20;98.10;;;;;;5013044;28;20648;-72
2021/07/17 08:50:09;;;;;;;1.40;0.57;;;27.30;97.20;;;;;;5006740;28;20558;-71
2021/07/17 08:52:36;;;;;;;0.30;0.30;;;27.00;97.80;;;;;;5009819;28;20189;-72
2021/07/17 08:55:07;;;;;;;0.47;0.47;;;26.80;98.80;;;;;;5016616;28;20230;-72
2021/07/17 08:57:38;;;;;;;0.50;0.50;;;27.00;97.70;;;;;;5011963;28;20206;-72
2021/07/17 09:00:09;;;;;;;0.68;0.40;;;27.00;98.60;;;;;;5009184;28;20205;-72
2021/07/17 09:02:43;;;;;;;1.38;0.40;;;27.40;99.00;;;;;;5009680;28;20711;-72
2021/07/17 09:05:11;;;;;;;0.25;0.25;;;27.60;96.30;;;;;;5009097;28;20855;-71
2021/07/17 09:07:37;;;;;;;0.40;0.40;;;27.80;97.90;;;;;;5012415;28;20201;-71
2021/07/17 09:10:35;;;;;;;3.92;0.63;;;27.50;96.50;;;;;;5011022;28;20612;-72
2021/07/17 09:13:08;;;;;;;0.20;0.20;;;27.40;96.90;;;;;;5016167;28;20282;-72
2021/07/17 09:15:34;;;;;;;1.65;0.50;;;27.40;97.00;;;;;;5018687;28;20255;-72
2021/07/17 09:18:00;;;;;;;0.10;0.10;;;27.80;95.10;;;;;;5019140;28;20210;-71
2021/07/17 09:20:26;;;;;;;0.30;0.20;;;27.80;95.10;;;;;;5011299;28;20536;-71
2021/07/17 09:23:00;;;;;;;1.15;0.68;;;27.90;94.30;;;;;;5017027;28;20193;-72
2021/07/17 09:25:42;;;;;;;0.45;0.45;;;27.70;93.20;;;;;;5010092;28;20304;-72
2021/07/17 09:28:34;;;;;;;1.13;0.35;;;28.00;95.30;;;;;;5013529;28;20677;-72
2021/07/17 09:31:00;;;;;;;0.90;0.45;;;28.30;92.30;;;;;;5012094;28;20206;-72
2021/07/17 09:33:27;;;;;;;0.20;0.20;;;28.40;92.90;;;;;;5010133;28;20210;-72
2021/07/17 09:35:56;;;;;;;1.08;0.35;;;28.60;94.80;;;;;;5017092;28;20193;-72
2021/07/17 09:38:23;;;;;;;0.65;0.47;;;28.60;93.10;;;;;;5017635;28;20247;-71
2021/07/17 09:40:53;;;;;;;1.17;0.45;;;28.50;92.00;;;;;;5016371;28;20201;-72
2021/07/17 09:43:38;;;;;;;0.30;0.28;;;28.30;92.90;;;;;;5019949;28;20201;-73
2021/07/17 09:46:20;;;;;;;0.52;0.30;;;28.50;92.30;;;;;;5018280;28;20597;-74
2021/07/17 09:49:14;;;;;;;0.52;0.30;;;28.60;92.60;;;;;;5019914;28;20209;-74
2021/07/17 09:51:39;;;;;;;0.73;0.70;;;29.00;91.10;;;;;;5016130;28;20240;-74
2021/07/17 09:54:06;;;;;;;1.02;0.40;;;28.90;90.60;;;;;;5020600;28;20217;-74
2021/07/17 09:56:40;;;;;;;0.38;0.38;;;29.20;91.10;;;;;;5022363;28;20603;-74
2021/07/17 09:59:16;;;;;;;1.02;0.82;;;29.40;91.20;;;;;;5011740;28;20198;-75
2021/07/17 10:01:44;;;;;;;1.55;0.98;;;29.40;91.50;;;;;;5015503;28;20193;-74
2021/07/17 10:04:14;;;;;;;0.93;0.52;;;29.40;91.20;;;;;;5018553;28;20217;-74
2021/07/17 10:06:59;;;;;;;0.47;0.28;;;29.70;91.60;;;;;;5016679;28;20256;-75
2021/07/17 10:09:34;;;;;;;2.22;0.60;;;29.90;90.20;;;;;;5021606;28;20217;-73
2021/07/17 10:12:08;;;;;;;0.55;0.55;;;30.20;87.30;;;;;;5015718;28;20289;-74
2021/07/17 10:14:39;;;;;;;0.60;0.30;;;30.20;86.90;;;;;;5019619;28;20635;-74
2021/07/17 10:17:06;;;;;;;0.55;0.55;;;30.00;87.80;;;;;;5020013;28;20205;-75
2021/07/17 10:19:33;;;;;;;1.10;0.65;;;30.00;87.60;;;;;;5018499;28;20686;-76
2021/07/17 10:21:59;;;;;;;2.50;0.65;;;29.80;82.80;;;;;;5022670;28;20215;-75
2021/07/17 10:24:26;;;;;;;2.13;0.90;;;29.50;85.50;;;;;;5021724;28;20205;-74
2021/07/17 10:26:53;;;;;;;1.52;0.50;;;29.60;80.30;;;;;;5019307;28;20212;-75
2021/07/17 10:29:21;;;;;;;0.77;0.65;;;29.40;83.00;;;;;;5019458;28;20529;-75
2021/07/17 10:31:48;;;;;;;0.65;0.65;;;29.00;82.80;;;;;;5022769;28;20251;-74
2021/07/17 10:34:15;;;;;;;0.90;0.77;;;28.80;84.50;;;;;;5011809;28;20238;-75
2021/07/17 10:37:09;;;;;;;3.58;0.65;;;28.80;85.60;;;;;;5014818;28;20205;-75
2021/07/17 10:39:39;;;;;;;1.25;1.02;;;29.00;82.80;;;;;;5013691;28;20214;-75
2021/07/17 10:42:12;;;;;;;0.65;0.60;;;29.10;88.70;;;;;;5013180;28;20634;-75
2021/07/17 10:44:43;;;;;;;0.77;0.70;;;29.30;85.90;;;;;;5014038;28;20216;-74
2021/07/17 10:47:09;;;;;;;2.38;0.68;;;28.80;85.60;;;;;;5020565;28;20193;-74
2021/07/17 10:49:49;;;;;;;1.17;0.95;;;29.20;83.50;;;;;;5018190;28;20226;-75
2021/07/17 10:52:32;;;;;;;0.50;0.50;;;29.30;83.00;;;;;;5023056;28;20197;-75
2021/07/17 10:55:32;;;;;;;0.35;0.35;;;29.40;80.80;;;;;;5013516;28;20225;-74
2021/07/17 10:58:18;;;;;;;0.55;0.50;;;29.50;82.10;;;;;;5017668;28;20255;-74
2021/07/17 11:00:47;;;;;;;1.27;0.93;;;29.40;80.60;;;;;;5015535;28;20211;-74
2021/07/17 11:03:28;;;;;;;0.65;0.40;;;29.40;80.00;;;;;;5017156;28;20198;-74
2021/07/17 11:05:54;;;;;;;1.98;1.05;;;29.50;80.30;;;;;;5012094;28;20229;-74
2021/07/17 11:08:38;;;;;;;0.60;0.25;;;29.60;82.50;;;;;;5014441;28;20194;-74
2021/07/17 11:11:35;;;;;;;1.23;0.50;;;30.00;85.60;;;;;;5016102;28;20777;-74
2021/07/17 11:14:24;;;;;;;0.35;0.35;;;30.10;80.30;;;;;;5011061;28;20194;-73
2021/07/17 11:16:53;;;;;;;0.73;0.20;;;30.10;79.20;;;;;;5010613;28;20186;-75
2021/07/17 11:19:24;;;;;;;0.57;0.43;;;30.10;78.10;;;;;;5007280;28;20202;-74
2021/07/17 11:21:50;;;;;;;0.60;0.60;;;29.90;76.80;;;;;;5011821;28;20588;-74
2021/07/17 11:24:16;;;;;;;0.80;0.55;;;29.90;81.40;;;;;;5014494;28;20217;-74
2021/07/17 11:26:42;;;;;;;2.70;0.55;;;30.30;77.60;;;;;;5009625;28;20203;-74
2021/07/17 11:29:08;;;;;;;0.22;0.22;;;30.20;79.00;;;;;;5011245;28;20261;-74
2021/07/17 11:31:39;;;;;;;1.30;0.80;;;30.40;78.80;;;;;;5019688;28;20205;-74
2021/07/17 11:34:17;;;;;;;3.80;1.42;;;30.10;79.90;;;;;;5015832;28;20193;-75
2021/07/17 11:37:03;;;;;;;0.32;0.32;;;30.50;80.60;;;;;;5016592;28;20201;-74
2021/07/17 11:39:33;;;;;;;0.50;0.50;;;30.70;77.70;;;;;;5016791;28;20664;-75
2021/07/17 11:42:00;;;;;;;0.70;0.70;;;30.40;78.60;;;;;;5013942;28;20189;-76
2021/07/17 11:44:32;;;;;;;0.70;0.63;;;30.30;76.90;;;;;;5013552;28;20573;-76
2021/07/17 11:47:00;;;;;;;0.80;0.65;;;30.20;77.80;;;;;;5013151;28;20816;-77
2021/07/17 11:49:41;;;;;;;1.00;0.77;;;30.10;76.50;;;;;;5022897;28;20200;-77
2021/07/17 11:52:12;;;;;;;1.35;0.40;;;30.00;79.40;;;;;;5016481;28;20206;-74
2021/07/17 11:54:40;;;;;;;2.17;0.68;;;30.20;77.20;;;;;;5021359;28;20200;-76
2021/07/17 11:57:33;;;;;;;1.48;0.80;;;30.40;77.30;;;;;;5014154;28;20206;-76
2021/07/17 12:00:05;;;;;;;0.73;0.52;;;30.60;77.80;;;;;;5010537;28;20744;-74
2021/07/17 12:02:33;;;;;;;0.47;0.47;;;30.60;78.30;;;;;;5014703;28;20676;-76
2021/07/17 12:05:17;;;;;;;0.60;0.60;;;30.70;76.40;;;;;;5008569;28;20218;-77
2021/07/17 12:07:44;;;;;;;1.02;0.68;;;30.40;78.00;;;;;;5012212;28;20193;-75
2021/07/17 12:10:19;;;;;;;1.65;0.80;;;30.60;78.10;;;;;;5015073;28;20194;-75
2021/07/17 12:12:46;;;;;;;2.08;0.52;;;30.70;74.80;;;;;;5021011;28;20200;-77
2021/07/17 12:15:18;;;;;;;1.55;0.93;;;31.00;75.00;;;;;;5012367;28;20197;-77
2021/07/17 12:17:47;;;;;;;1.23;0.98;;;31.10;74.80;;;;;;5011552;28;20340;-75
2021/07/17 12:20:34;;;;;;;3.10;1.23;;;31.10;73.50;;;;;;5019155;28;20696;-76
2021/07/17 12:23:01;;;;;;;0.98;0.63;;;30.80;73.60;;;;;;5012336;28;20611;-77
2021/07/17 12:25:34;;;;;;;0.82;0.80;;;30.60;73.90;;;;;;5016725;28;20297;-75
2021/07/17 12:28:16;;;;;;;0.70;0.70;;;30.40;70.80;;;;;;5021120;28;20203;-74
2021/07/17 12:30:47;;;;;;;0.30;0.30;;;30.40;74.90;;;;;;5016752;28;20925;-76
2021/07/17 12:33:23;;;;;;;0.73;0.70;;;30.50;75.90;;;;;;5012468;28;20269;-76
2021/07/17 12:35:59;;;;;;;1.65;1.20;;;30.20;72.60;;;;;;5015359;28;20197;-76
2021/07/17 12:38:27;;;;;;;1.02;0.93;;;30.30;72.00;;;;;;5012311;28;20667;-76
2021/07/17 12:41:02;;;;;;;1.15;0.90;;;30.50;73.00;;;;;;5014100;28;20202;-77
2021/07/17 12:43:49;;;;;;;4.57;1.48;;;30.90;74.60;;;;;;5010581;28;20250;-75
2021/07/17 12:46:18;;;;;;;0.38;0.38;;;31.10;70.60;;;;;;5010983;28;20251;-76
2021/07/17 12:48:59;;;;;;;1.55;1.35;;;31.20;72.20;;;;;;5016299;28;20198;-76
2021/07/17 12:51:36;;;;;;;1.88;0.93;;;31.40;71.60;;;;;;5017654;28;20241;-77
2021/07/17 12:54:13;;;;;;;0.70;0.60;;;31.20;72.00;;;;;;5016083;28;20197;-76